Imperial Eagle — V7TK5 — position and weather

sailwx.info

Track history (hours):
 
Tides and Currents Weather Stations Pressure Air Temp Water Temp Dewpoint Dewpoint Depression Visibility Wind Speed Wind Dir Waves Ship Positions

Imperial Eagle

Last reported at 2017-Jan-24 16:31 UTC. Time now 2017-Jan-24 17:14 UTC.
Position S 29°52' E 031°03'.

Length 190 m; draft 12.5 m.

Type: Cargo ship. MMSI: 256759020.

Date/timePositionNaut miles runAvg speedWind from/ knotsBaromVisibWave heightAir tempDewpointWater temp
2017-Jan-24 16:31S 29°52' E 031°03'0 0.0
2017-Jan-24 15:31S 29°52' E 031°03'0 0.0
2017-Jan-24 14:31S 29°52' E 031°03'0 0.0
2017-Jan-24 13:31S 29°52' E 031°03'0 0.0
2017-Jan-24 12:31S 29°52' E 031°03'0 0.0
2017-Jan-24 11:31S 29°52' E 031°03'0 0.0
2017-Jan-24 10:31S 29°52' E 031°03'0 0.0
2017-Jan-24 09:31S 29°52' E 031°03'0 0.0
2017-Jan-24 08:28S 29°52' E 031°03'0 0.0
2017-Jan-24 07:31S 29°52' E 031°03'0 0.0
2017-Jan-24 06:31S 29°52' E 031°03'0 0.0
2017-Jan-24 05:31S 29°52' E 031°03'0 0.0
2017-Jan-24 04:31S 29°52' E 031°03'0 0.0
2017-Jan-24 03:31S 29°52' E 031°03'0 0.0
2017-Jan-24 02:31S 29°52' E 031°03'0 0.0
2017-Jan-24 01:31S 29°52' E 031°03'0 0.0
2017-Jan-24 00:31S 29°52' E 031°03'0 0.0
2017-Jan-23 23:31S 29°52' E 031°03'0 0.0
2017-Jan-23 22:32S 29°52' E 031°03'4 3.7
2017-Jan-23 21:33S 29°50' E 031°06'8 8.1
2017-Jan-23 20:34S 29°46' E 031°14'6 6.5
2017-Jan-23 19:33S 29°41' E 031°19'7 6.9
2017-Jan-23 18:34S 29°37' E 031°25'7 6.9
2017-Jan-23 17:34S 29°33' E 031°32'7 7.4
2017-Jan-23 16:34S 29°29' E 031°38'1010.2
2017-Jan-23 15:33S 29°22' E 031°48'1312.7
2017-Jan-23 14:34S 29°14' E 031°59'1413.9
2017-Jan-23 13:33S 29°06' E 032°12'1414.1
2017-Jan-23 12:34S 28°56' E 032°23'1614.3
2017-Jan-23 11:28S 28°43' E 032°33'1314.0
2017-Jan-23 10:32S 28°32' E 032°42'1413.5
2017-Jan-23 09:31S 28°21' E 032°50'1313.1
2017-Jan-23 08:33S 28°10' E 032°57'1312.7
2017-Jan-23 07:33S 27°60' E 033°05'  
Track history (hours):
 
Tides and Currents Weather Stations Pressure Air Temp Water Temp Dewpoint Dewpoint Depression Visibility Wind Speed Wind Dir Waves Ship Positions

Imperial Eagle

Last reported at 2017-Jan-24 16:31 UTC. Time now 2017-Jan-24 17:14 UTC.
Position S 29°52' E 031°03'.

Length 190 m; draft 12.5 m.

Type: Cargo ship. MMSI: 256759020.

Date/timePositionNaut miles runAvg speedWind from/ knotsBaromVisibWave heightAir tempDewpointWater temp
2017-Jan-24 16:31S 29°52' E 031°03'0 0.0
2017-Jan-24 15:31S 29°52' E 031°03'0 0.0
2017-Jan-24 14:31S 29°52' E 031°03'0 0.0
2017-Jan-24 13:31S 29°52' E 031°03'0 0.0
2017-Jan-24 12:31S 29°52' E 031°03'0 0.0
2017-Jan-24 11:31S 29°52' E 031°03'0 0.0
2017-Jan-24 10:31S 29°52' E 031°03'0 0.0
2017-Jan-24 09:31S 29°52' E 031°03'0 0.0
2017-Jan-24 08:28S 29°52' E 031°03'0 0.0
2017-Jan-24 07:31S 29°52' E 031°03'0 0.0
2017-Jan-24 06:31S 29°52' E 031°03'0 0.0
2017-Jan-24 05:31S 29°52' E 031°03'0 0.0
2017-Jan-24 04:31S 29°52' E 031°03'0 0.0
2017-Jan-24 03:31S 29°52' E 031°03'0 0.0
2017-Jan-24 02:31S 29°52' E 031°03'0 0.0
2017-Jan-24 01:31S 29°52' E 031°03'0 0.0
2017-Jan-24 00:31S 29°52' E 031°03'0 0.0
2017-Jan-23 23:31S 29°52' E 031°03'0 0.0
2017-Jan-23 22:32S 29°52' E 031°03'4 3.7
2017-Jan-23 21:33S 29°50' E 031°06'8 8.1
2017-Jan-23 20:34S 29°46' E 031°14'6 6.5
2017-Jan-23 19:33S 29°41' E 031°19'7 6.9
2017-Jan-23 18:34S 29°37' E 031°25'7 6.9
2017-Jan-23 17:34S 29°33' E 031°32'7 7.4
2017-Jan-23 16:34S 29°29' E 031°38'1010.2
2017-Jan-23 15:33S 29°22' E 031°48'1312.7
2017-Jan-23 14:34S 29°14' E 031°59'1413.9
2017-Jan-23 13:33S 29°06' E 032°12'1414.1
2017-Jan-23 12:34S 28°56' E 032°23'1614.3
2017-Jan-23 11:28S 28°43' E 032°33'1314.0
2017-Jan-23 10:32S 28°32' E 032°42'1413.5
2017-Jan-23 09:31S 28°21' E 032°50'1313.1
2017-Jan-23 08:33S 28°10' E 032°57'1312.7
2017-Jan-23 07:33S 27°60' E 033°05'  

Dump ship's entire track history